sensor_id;sensor_type;location;lat;lon;timestamp;P1;durP1;ratioP1;P2;durP2;ratioP2
5454;SDS011;2750;49.050;9.250;2022-08-01T00:03:19;3.57;;;3.30;;
5454;SDS011;2750;49.050;9.250;2022-08-01T00:08:20;3.03;;;2.83;;
5454;SDS011;2750;49.050;9.250;2022-08-01T00:13:23;4.30;;;3.90;;
5454;SDS011;2750;49.050;9.250;2022-08-01T00:18:24;3.73;;;3.30;;
5454;SDS011;2750;49.050;9.250;2022-08-01T00:23:26;3.83;;;3.53;;
5454;SDS011;2750;49.050;9.250;2022-08-01T00:28:31;3.27;;;3.07;;
5454;SDS011;2750;49.050;9.250;2022-08-01T00:33:33;3.17;;;2.93;;
5454;SDS011;2750;49.050;9.250;2022-08-01T00:38:34;3.40;;;3.20;;
5454;SDS011;2750;49.050;9.250;2022-08-01T00:43:37;4.20;;;3.63;;
5454;SDS011;2750;49.050;9.250;2022-08-01T00:48:38;3.30;;;3.00;;
5454;SDS011;2750;49.050;9.250;2022-08-01T00:53:40;3.43;;;3.03;;
5454;SDS011;2750;49.050;9.250;2022-08-01T00:58:43;4.57;;;3.07;;
5454;SDS011;2750;49.050;9.250;2022-08-01T01:03:45;3.57;;;3.27;;
5454;SDS011;2750;49.050;9.250;2022-08-01T01:08:49;3.23;;;3.03;;
5454;SDS011;2750;49.050;9.250;2022-08-01T01:14:00;3.60;;;3.30;;
5454;SDS011;2750;49.050;9.250;2022-08-01T01:19:05;4.50;;;4.10;;
5454;SDS011;2750;49.050;9.250;2022-08-01T01:24:17;4.10;;;3.80;;
5454;SDS011;2750;49.050;9.250;2022-08-01T01:29:29;4.10;;;3.80;;
5454;SDS011;2750;49.050;9.250;2022-08-01T01:34:34;4.43;;;3.43;;
5454;SDS011;2750;49.050;9.250;2022-08-01T01:39:38;3.40;;;3.10;;
5454;SDS011;2750;49.050;9.250;2022-08-01T01:44:44;7.40;;;3.97;;
5454;SDS011;2750;49.050;9.250;2022-08-01T01:49:46;4.50;;;3.97;;
5454;SDS011;2750;49.050;9.250;2022-08-01T01:54:50;6.03;;;4.00;;
5454;SDS011;2750;49.050;9.250;2022-08-01T01:59:54;4.57;;;3.77;;
5454;SDS011;2750;49.050;9.250;2022-08-01T02:04:58;3.80;;;3.50;;
5454;SDS011;2750;49.050;9.250;2022-08-01T02:10:00;5.00;;;3.50;;
5454;SDS011;2750;49.050;9.250;2022-08-01T02:15:05;4.20;;;3.80;;
5454;SDS011;2750;49.050;9.250;2022-08-01T02:20:09;3.90;;;3.50;;
5454;SDS011;2750;49.050;9.250;2022-08-01T02:25:15;3.43;;;3.23;;
5454;SDS011;2750;49.050;9.250;2022-08-01T02:30:22;4.50;;;4.10;;
5454;SDS011;2750;49.050;9.250;2022-08-01T02:35:27;4.50;;;3.97;;
5454;SDS011;2750;49.050;9.250;2022-08-01T02:40:32;4.50;;;3.97;;
5454;SDS011;2750;49.050;9.250;2022-08-01T02:45:37;4.57;;;3.73;;
5454;SDS011;2750;49.050;9.250;2022-08-01T02:50:44;5.20;;;3.60;;
5454;SDS011;2750;49.050;9.250;2022-08-01T02:55:48;6.03;;;3.60;;
5454;SDS011;2750;49.050;9.250;2022-08-01T03:00:53;4.07;;;3.67;;
5454;SDS011;2750;49.050;9.250;2022-08-01T03:05:55;6.57;;;4.40;;
5454;SDS011;2750;49.050;9.250;2022-08-01T03:10:58;4.50;;;4.10;;
5454;SDS011;2750;49.050;9.250;2022-08-01T03:16:04;4.00;;;3.57;;
5454;SDS011;2750;49.050;9.250;2022-08-01T03:21:06;3.80;;;3.50;;
5454;SDS011;2750;49.050;9.250;2022-08-01T03:26:10;5.23;;;3.90;;
5454;SDS011;2750;49.050;9.250;2022-08-01T03:31:13;4.50;;;4.03;;
5454;SDS011;2750;49.050;9.250;2022-08-01T03:36:15;4.43;;;4.03;;
5454;SDS011;2750;49.050;9.250;2022-08-01T03:41:21;4.30;;;3.90;;
5454;SDS011;2750;49.050;9.250;2022-08-01T03:46:32;4.20;;;3.80;;
5454;SDS011;2750;49.050;9.250;2022-08-01T03:51:37;4.27;;;3.87;;
5454;SDS011;2750;49.050;9.250;2022-08-01T03:56:40;4.57;;;3.47;;
5454;SDS011;2750;49.050;9.250;2022-08-01T04:01:45;5.33;;;4.20;;
5454;SDS011;2750;49.050;9.250;2022-08-01T04:06:47;4.30;;;3.90;;
5454;SDS011;2750;49.050;9.250;2022-08-01T04:11:51;4.53;;;4.17;;
5454;SDS011;2750;49.050;9.250;2022-08-01T04:16:54;4.30;;;4.00;;
5454;SDS011;2750;49.050;9.250;2022-08-01T04:21:55;3.83;;;3.53;;
5454;SDS011;2750;49.050;9.250;2022-08-01T04:26:57;3.80;;;3.50;;
5454;SDS011;2750;49.050;9.250;2022-08-01T04:32:02;3.17;;;2.90;;
5454;SDS011;2750;49.050;9.250;2022-08-01T04:37:05;3.80;;;3.50;;
5454;SDS011;2750;49.050;9.250;2022-08-01T04:42:09;4.00;;;3.50;;
5454;SDS011;2750;49.050;9.250;2022-08-01T04:47:13;4.13;;;3.72;;
5454;SDS011;2750;49.050;9.250;2022-08-01T04:52:15;4.10;;;3.70;;
5454;SDS011;2750;49.050;9.250;2022-08-01T04:57:17;4.65;;;3.70;;
5454;SDS011;2750;49.050;9.250;2022-08-01T05:02:20;4.65;;;3.83;;
5454;SDS011;2750;49.050;9.250;2022-08-01T05:07:22;4.90;;;4.03;;
5454;SDS011;2750;49.050;9.250;2022-08-01T05:12:23;4.13;;;3.80;;
5454;SDS011;2750;49.050;9.250;2022-08-01T05:17:26;6.82;;;4.22;;
5454;SDS011;2750;49.050;9.250;2022-08-01T05:22:28;4.50;;;4.07;;
5454;SDS011;2750;49.050;9.250;2022-08-01T05:27:29;4.03;;;3.72;;
5454;SDS011;2750;49.050;9.250;2022-08-01T05:32:32;4.30;;;3.83;;
5454;SDS011;2750;49.050;9.250;2022-08-01T05:37:34;4.20;;;3.90;;
5454;SDS011;2750;49.050;9.250;2022-08-01T05:42:35;6.25;;;3.80;;
5454;SDS011;2750;49.050;9.250;2022-08-01T05:47:38;6.82;;;3.40;;
5454;SDS011;2750;49.050;9.250;2022-08-01T05:52:40;5.57;;;3.83;;
5454;SDS011;2750;49.050;9.250;2022-08-01T05:57:41;5.97;;;3.35;;
5454;SDS011;2750;49.050;9.250;2022-08-01T06:02:44;9.25;;;3.70;;
5454;SDS011;2750;49.050;9.250;2022-08-01T06:07:46;11.90;;;4.15;;
5454;SDS011;2750;49.050;9.250;2022-08-01T06:12:47;17.58;;;3.88;;
5454;SDS011;2750;49.050;9.250;2022-08-01T06:17:50;9.43;;;3.47;;
5454;SDS011;2750;49.050;9.250;2022-08-01T06:22:51;8.30;;;2.97;;
5454;SDS011;2750;49.050;9.250;2022-08-01T06:27:54;9.68;;;3.70;;
5454;SDS011;2750;49.050;9.250;2022-08-01T06:32:57;6.13;;;2.83;;
5454;SDS011;2750;49.050;9.250;2022-08-01T06:38:00;6.70;;;2.83;;
5454;SDS011;2750;49.050;9.250;2022-08-01T06:43:02;2.78;;;2.58;;
5454;SDS011;2750;49.050;9.250;2022-08-01T06:48:05;6.15;;;2.92;;
5454;SDS011;2750;49.050;9.250;2022-08-01T06:53:07;3.15;;;2.30;;
5454;SDS011;2750;49.050;9.250;2022-08-01T06:58:08;5.68;;;2.50;;
5454;SDS011;2750;49.050;9.250;2022-08-01T07:03:11;4.35;;;2.58;;
5454;SDS011;2750;49.050;9.250;2022-08-01T07:08:13;2.38;;;2.17;;
5454;SDS011;2750;49.050;9.250;2022-08-01T07:13:15;2.55;;;2.03;;
5454;SDS011;2750;49.050;9.250;2022-08-01T07:18:22;3.25;;;2.30;;
5454;SDS011;2750;49.050;9.250;2022-08-01T07:23:23;2.38;;;2.17;;
5454;SDS011;2750;49.050;9.250;2022-08-01T07:28:25;2.60;;;2.40;;
5454;SDS011;2750;49.050;9.250;2022-08-01T07:33:28;2.58;;;2.28;;
5454;SDS011;2750;49.050;9.250;2022-08-01T07:38:29;2.60;;;2.10;;
5454;SDS011;2750;49.050;9.250;2022-08-01T07:43:31;3.38;;;2.00;;
5454;SDS011;2750;49.050;9.250;2022-08-01T07:48:33;5.43;;;2.58;;
5454;SDS011;2750;49.050;9.250;2022-08-01T07:53:35;2.55;;;2.35;;
5454;SDS011;2750;49.050;9.250;2022-08-01T07:58:36;4.03;;;2.50;;
5454;SDS011;2750;49.050;9.250;2022-08-01T08:03:39;3.05;;;2.42;;
5454;SDS011;2750;49.050;9.250;2022-08-01T08:08:41;4.07;;;2.35;;
5454;SDS011;2750;49.050;9.250;2022-08-01T08:13:42;2.40;;;2.20;;
5454;SDS011;2750;49.050;9.250;2022-08-01T08:18:45;2.28;;;1.92;;
5454;SDS011;2750;49.050;9.250;2022-08-01T08:23:47;2.20;;;2.00;;
5454;SDS011;2750;49.050;9.250;2022-08-01T08:29:11;3.22;;;2.47;;
5454;SDS011;2750;49.050;9.250;2022-08-01T08:34:14;2.47;;;2.20;;
5454;SDS011;2750;49.050;9.250;2022-08-01T08:39:15;2.15;;;1.98;;
5454;SDS011;2750;49.050;9.250;2022-08-01T08:44:17;2.85;;;1.95;;
5454;SDS011;2750;49.050;9.250;2022-08-01T08:49:22;2.60;;;2.40;;
5454;SDS011;2750;49.050;9.250;2022-08-01T08:54:25;2.10;;;1.88;;
5454;SDS011;2750;49.050;9.250;2022-08-01T08:59:27;2.38;;;2.17;;
5454;SDS011;2750;49.050;9.250;2022-08-01T09:04:30;2.70;;;1.80;;
5454;SDS011;2750;49.050;9.250;2022-08-01T09:09:33;2.58;;;2.15;;
5454;SDS011;2750;49.050;9.250;2022-08-01T09:14:34;2.78;;;2.38;;
5454;SDS011;2750;49.050;9.250;2022-08-01T09:19:48;3.05;;;1.80;;
5454;SDS011;2750;49.050;9.250;2022-08-01T09:24:58;3.20;;;2.10;;
5454;SDS011;2750;49.050;9.250;2022-08-01T09:30:09;3.47;;;2.22;;
5454;SDS011;2750;49.050;9.250;2022-08-01T09:35:24;2.42;;;2.20;;
5454;SDS011;2750;49.050;9.250;2022-08-01T09:40:35;4.57;;;2.67;;
5454;SDS011;2750;49.050;9.250;2022-08-01T09:45:45;3.22;;;2.33;;
5454;SDS011;2750;49.050;9.250;2022-08-01T09:50:49;3.63;;;2.40;;
5454;SDS011;2750;49.050;9.250;2022-08-01T09:55:52;2.35;;;2.03;;
5454;SDS011;2750;49.050;9.250;2022-08-01T10:00:57;3.90;;;2.50;;
5454;SDS011;2750;49.050;9.250;2022-08-01T10:06:09;1.92;;;1.83;;
5454;SDS011;2750;49.050;9.250;2022-08-01T10:11:20;3.70;;;2.10;;
5454;SDS011;2750;49.050;9.250;2022-08-01T10:16:22;3.13;;;2.13;;
5454;SDS011;2750;49.050;9.250;2022-08-01T10:21:25;2.67;;;2.47;;
5454;SDS011;2750;49.050;9.250;2022-08-01T10:26:29;2.10;;;1.90;;
5454;SDS011;2750;49.050;9.250;2022-08-01T10:31:34;2.22;;;1.73;;
5454;SDS011;2750;49.050;9.250;2022-08-01T10:36:37;1.98;;;1.80;;
5454;SDS011;2750;49.050;9.250;2022-08-01T10:41:39;3.25;;;1.75;;
5454;SDS011;2750;49.050;9.250;2022-08-01T10:46:42;2.35;;;2.15;;
5454;SDS011;2750;49.050;9.250;2022-08-01T10:51:49;2.08;;;1.70;;
5454;SDS011;2750;49.050;9.250;2022-08-01T10:56:51;4.00;;;2.17;;
5454;SDS011;2750;49.050;9.250;2022-08-01T11:01:56;1.80;;;1.70;;
5454;SDS011;2750;49.050;9.250;2022-08-01T11:07:04;2.22;;;2.03;;
5454;SDS011;2750;49.050;9.250;2022-08-01T11:12:08;2.75;;;2.00;;
5454;SDS011;2750;49.050;9.250;2022-08-01T11:22:32;2.17;;;1.88;;
5454;SDS011;2750;49.050;9.250;2022-08-01T11:28:25;2.33;;;1.92;;
5454;SDS011;2750;49.050;9.250;2022-08-01T11:44:17;2.28;;;2.08;;
5454;SDS011;2750;49.050;9.250;2022-08-01T11:49:26;3.05;;;1.92;;
5454;SDS011;2750;49.050;9.250;2022-08-01T11:54:34;2.20;;;1.70;;
5454;SDS011;2750;49.050;9.250;2022-08-01T11:59:38;2.20;;;2.00;;
5454;SDS011;2750;49.050;9.250;2022-08-01T12:04:45;2.80;;;1.90;;
5454;SDS011;2750;49.050;9.250;2022-08-01T12:09:55;2.38;;;2.15;;
5454;SDS011;2750;49.050;9.250;2022-08-01T12:14:59;3.08;;;2.00;;
5454;SDS011;2750;49.050;9.250;2022-08-01T12:20:04;2.42;;;2.17;;
5454;SDS011;2750;49.050;9.250;2022-08-01T12:25:08;1.65;;;1.55;;
5454;SDS011;2750;49.050;9.250;2022-08-01T12:30:12;2.88;;;1.70;;
5454;SDS011;2750;49.050;9.250;2022-08-01T12:35:15;2.28;;;1.83;;
5454;SDS011;2750;49.050;9.250;2022-08-01T12:40:20;5.80;;;2.40;;
5454;SDS011;2750;49.050;9.250;2022-08-01T12:45:24;1.73;;;1.58;;
5454;SDS011;2750;49.050;9.250;2022-08-01T12:50:26;3.63;;;2.20;;
5454;SDS011;2750;49.050;9.250;2022-08-01T12:55:31;2.80;;;1.88;;
5454;SDS011;2750;49.050;9.250;2022-08-01T13:00:33;3.00;;;2.15;;
5454;SDS011;2750;49.050;9.250;2022-08-01T13:05:44;2.10;;;1.88;;
5454;SDS011;2750;49.050;9.250;2022-08-01T13:10:49;3.40;;;2.42;;
5454;SDS011;2750;49.050;9.250;2022-08-01T13:15:51;5.75;;;2.10;;
5454;SDS011;2750;49.050;9.250;2022-08-01T13:21:08;2.55;;;1.75;;
5454;SDS011;2750;49.050;9.250;2022-08-01T13:26:13;2.85;;;2.10;;
5454;SDS011;2750;49.050;9.250;2022-08-01T13:31:14;2.20;;;1.98;;
5454;SDS011;2750;49.050;9.250;2022-08-01T13:36:15;2.05;;;1.85;;
5454;SDS011;2750;49.050;9.250;2022-08-01T13:41:18;2.45;;;2.20;;
5454;SDS011;2750;49.050;9.250;2022-08-01T13:46:20;2.80;;;2.20;;
5454;SDS011;2750;49.050;9.250;2022-08-01T13:51:21;2.53;;;2.30;;
5454;SDS011;2750;49.050;9.250;2022-08-01T13:56:24;2.58;;;2.38;;
5454;SDS011;2750;49.050;9.250;2022-08-01T14:01:27;2.70;;;1.90;;
5454;SDS011;2750;49.050;9.250;2022-08-01T14:06:28;5.70;;;2.30;;
5454;SDS011;2750;49.050;9.250;2022-08-01T14:11:31;2.78;;;2.17;;
5454;SDS011;2750;49.050;9.250;2022-08-01T14:16:33;2.17;;;1.98;;
5454;SDS011;2750;49.050;9.250;2022-08-01T14:21:37;2.20;;;2.00;;
5454;SDS011;2750;49.050;9.250;2022-08-01T14:26:40;2.50;;;2.30;;
5454;SDS011;2750;49.050;9.250;2022-08-01T14:31:41;3.38;;;2.30;;
5454;SDS011;2750;49.050;9.250;2022-08-01T14:36:43;3.08;;;2.00;;
5454;SDS011;2750;49.050;9.250;2022-08-01T14:41:45;1.70;;;1.60;;
5454;SDS011;2750;49.050;9.250;2022-08-01T14:46:47;1.83;;;1.73;;
5454;SDS011;2750;49.050;9.250;2022-08-01T14:51:50;3.55;;;1.98;;
5454;SDS011;2750;49.050;9.250;2022-08-01T14:56:52;2.25;;;1.98;;
5454;SDS011;2750;49.050;9.250;2022-08-01T15:01:54;2.20;;;2.00;;
5454;SDS011;2750;49.050;9.250;2022-08-01T15:06:55;3.35;;;1.90;;
5454;SDS011;2750;49.050;9.250;2022-08-01T15:11:58;6.10;;;2.38;;
5454;SDS011;2750;49.050;9.250;2022-08-01T15:17:00;3.53;;;2.00;;
5454;SDS011;2750;49.050;9.250;2022-08-01T15:22:01;1.83;;;1.73;;
5454;SDS011;2750;49.050;9.250;2022-08-01T15:27:05;2.40;;;2.08;;
5454;SDS011;2750;49.050;9.250;2022-08-01T15:32:06;2.17;;;1.95;;
5454;SDS011;2750;49.050;9.250;2022-08-01T15:37:09;3.95;;;2.28;;
5454;SDS011;2750;49.050;9.250;2022-08-01T15:42:13;2.20;;;1.98;;
5454;SDS011;2750;49.050;9.250;2022-08-01T15:47:16;2.15;;;1.90;;
5454;SDS011;2750;49.050;9.250;2022-08-01T15:52:18;3.40;;;1.90;;
5454;SDS011;2750;49.050;9.250;2022-08-01T15:57:21;3.70;;;2.10;;
5454;SDS011;2750;49.050;9.250;2022-08-01T16:02:22;2.70;;;1.83;;
5454;SDS011;2750;49.050;9.250;2022-08-01T16:07:24;3.55;;;2.30;;
5454;SDS011;2750;49.050;9.250;2022-08-01T16:12:27;3.03;;;1.75;;
5454;SDS011;2750;49.050;9.250;2022-08-01T16:17:28;2.92;;;1.95;;
5454;SDS011;2750;49.050;9.250;2022-08-01T16:22:30;2.28;;;1.80;;
5454;SDS011;2750;49.050;9.250;2022-08-01T16:27:33;1.50;;;1.40;;
5454;SDS011;2750;49.050;9.250;2022-08-01T16:32:34;2.50;;;2.00;;
5454;SDS011;2750;49.050;9.250;2022-08-01T16:37:36;2.55;;;1.88;;
5454;SDS011;2750;49.050;9.250;2022-08-01T16:42:38;1.80;;;1.70;;
5454;SDS011;2750;49.050;9.250;2022-08-01T16:47:40;2.75;;;1.90;;
5454;SDS011;2750;49.050;9.250;2022-08-01T16:52:41;3.03;;;1.73;;
5454;SDS011;2750;49.050;9.250;2022-08-01T16:57:44;1.95;;;1.70;;
5454;SDS011;2750;49.050;9.250;2022-08-01T17:02:46;2.47;;;1.70;;
5454;SDS011;2750;49.050;9.250;2022-08-01T17:07:47;2.47;;;1.75;;
5454;SDS011;2750;49.050;9.250;2022-08-01T17:12:50;1.60;;;1.50;;
5454;SDS011;2750;49.050;9.250;2022-08-01T17:17:52;1.73;;;1.63;;
5454;SDS011;2750;49.050;9.250;2022-08-01T17:22:53;2.13;;;1.92;;
5454;SDS011;2750;49.050;9.250;2022-08-01T17:27:56;1.60;;;1.50;;
5454;SDS011;2750;49.050;9.250;2022-08-01T17:32:58;1.80;;;1.60;;
5454;SDS011;2750;49.050;9.250;2022-08-01T17:37:59;2.67;;;1.83;;
5454;SDS011;2750;49.050;9.250;2022-08-01T17:43:02;1.30;;;1.20;;
5454;SDS011;2750;49.050;9.250;2022-08-01T17:48:04;1.90;;;1.80;;
5454;SDS011;2750;49.050;9.250;2022-08-01T17:53:05;1.83;;;1.73;;
5454;SDS011;2750;49.050;9.250;2022-08-01T17:58:08;1.65;;;1.48;;
5454;SDS011;2750;49.050;9.250;2022-08-01T18:03:12;2.00;;;1.80;;
5454;SDS011;2750;49.050;9.250;2022-08-01T18:08:17;1.48;;;1.38;;
5454;SDS011;2750;49.050;9.250;2022-08-01T18:13:19;1.50;;;1.30;;
5454;SDS011;2750;49.050;9.250;2022-08-01T18:18:21;1.70;;;1.60;;
5454;SDS011;2750;49.050;9.250;2022-08-01T18:23:22;3.38;;;1.60;;
5454;SDS011;2750;49.050;9.250;2022-08-01T18:28:25;2.42;;;1.80;;
5454;SDS011;2750;49.050;9.250;2022-08-01T18:33:27;2.05;;;1.40;;
5454;SDS011;2750;49.050;9.250;2022-08-01T18:38:29;1.40;;;1.30;;
5454;SDS011;2750;49.050;9.250;2022-08-01T18:43:32;4.32;;;1.90;;
5454;SDS011;2750;49.050;9.250;2022-08-01T18:48:35;2.00;;;1.50;;
5454;SDS011;2750;49.050;9.250;2022-08-01T18:53:36;2.92;;;1.80;;
5454;SDS011;2750;49.050;9.250;2022-08-01T18:58:42;1.80;;;1.70;;
5454;SDS011;2750;49.050;9.250;2022-08-01T19:03:43;4.28;;;2.10;;
5454;SDS011;2750;49.050;9.250;2022-08-01T19:08:44;3.63;;;1.90;;
5454;SDS011;2750;49.050;9.250;2022-08-01T19:13:47;2.60;;;1.60;;
5454;SDS011;2750;49.050;9.250;2022-08-01T19:18:49;4.00;;;2.00;;
5454;SDS011;2750;49.050;9.250;2022-08-01T19:23:50;6.25;;;1.98;;
5454;SDS011;2750;49.050;9.250;2022-08-01T19:29:12;2.00;;;1.77;;
5454;SDS011;2750;49.050;9.250;2022-08-01T19:34:17;3.60;;;1.73;;
5454;SDS011;2750;49.050;9.250;2022-08-01T19:39:20;5.10;;;2.00;;
5454;SDS011;2750;49.050;9.250;2022-08-01T19:44:27;2.55;;;1.63;;
5454;SDS011;2750;49.050;9.250;2022-08-01T19:49:28;2.95;;;1.52;;
5454;SDS011;2750;49.050;9.250;2022-08-01T19:54:31;8.30;;;1.80;;
5454;SDS011;2750;49.050;9.250;2022-08-01T19:59:36;1.70;;;1.60;;
5454;SDS011;2750;49.050;9.250;2022-08-01T20:04:38;4.68;;;1.83;;
5454;SDS011;2750;49.050;9.250;2022-08-01T20:09:44;1.67;;;1.52;;
5454;SDS011;2750;49.050;9.250;2022-08-01T20:14:48;3.40;;;1.63;;
5454;SDS011;2750;49.050;9.250;2022-08-01T20:19:52;2.42;;;1.42;;
5454;SDS011;2750;49.050;9.250;2022-08-01T20:24:56;3.83;;;1.60;;
5454;SDS011;2750;49.050;9.250;2022-08-01T20:30:00;2.78;;;1.40;;
5454;SDS011;2750;49.050;9.250;2022-08-01T20:35:02;2.53;;;1.55;;
5454;SDS011;2750;49.050;9.250;2022-08-01T20:40:06;1.88;;;1.67;;
5454;SDS011;2750;49.050;9.250;2022-08-01T20:45:10;1.50;;;1.40;;
5454;SDS011;2750;49.050;9.250;2022-08-01T20:50:12;2.97;;;1.38;;
5454;SDS011;2750;49.050;9.250;2022-08-01T20:55:32;2.83;;;1.40;;
5454;SDS011;2750;49.050;9.250;2022-08-01T21:00:39;3.47;;;1.75;;
5454;SDS011;2750;49.050;9.250;2022-08-01T21:05:45;3.60;;;1.67;;
5454;SDS011;2750;49.050;9.250;2022-08-01T21:10:54;2.13;;;1.30;;
5454;SDS011;2750;49.050;9.250;2022-08-01T21:15:59;4.55;;;1.58;;
5454;SDS011;2750;49.050;9.250;2022-08-01T21:21:03;2.20;;;1.70;;
5454;SDS011;2750;49.050;9.250;2022-08-01T21:26:09;2.65;;;1.40;;
5454;SDS011;2750;49.050;9.250;2022-08-01T21:31:14;3.17;;;1.40;;
5454;SDS011;2750;49.050;9.250;2022-08-01T21:36:17;1.50;;;1.40;;
5454;SDS011;2750;49.050;9.250;2022-08-01T21:41:22;1.55;;;1.45;;
5454;SDS011;2750;49.050;9.250;2022-08-01T21:46:27;2.00;;;1.40;;
5454;SDS011;2750;49.050;9.250;2022-08-01T21:51:31;2.17;;;1.50;;
5454;SDS011;2750;49.050;9.250;2022-08-01T21:56:45;1.83;;;1.73;;
5454;SDS011;2750;49.050;9.250;2022-08-01T22:01:59;1.58;;;1.45;;
5454;SDS011;2750;49.050;9.250;2022-08-01T22:07:03;2.28;;;1.23;;
5454;SDS011;2750;49.050;9.250;2022-08-01T22:12:10;1.73;;;1.63;;
5454;SDS011;2750;49.050;9.250;2022-08-01T22:17:16;1.60;;;1.50;;
5454;SDS011;2750;49.050;9.250;2022-08-01T22:22:22;1.57;;;1.40;;
5454;SDS011;2750;49.050;9.250;2022-08-01T22:27:24;1.80;;;1.70;;
5454;SDS011;2750;49.050;9.250;2022-08-01T22:32:28;2.67;;;1.80;;
5454;SDS011;2750;49.050;9.250;2022-08-01T22:37:32;2.03;;;1.90;;
5454;SDS011;2750;49.050;9.250;2022-08-01T22:42:36;1.97;;;1.80;;
5454;SDS011;2750;49.050;9.250;2022-08-01T22:47:46;3.80;;;2.20;;
5454;SDS011;2750;49.050;9.250;2022-08-01T22:52:54;3.53;;;2.27;;
5454;SDS011;2750;49.050;9.250;2022-08-01T22:58:03;4.07;;;2.20;;
5454;SDS011;2750;49.050;9.250;2022-08-01T23:03:11;4.63;;;2.03;;
5454;SDS011;2750;49.050;9.250;2022-08-01T23:08:15;2.50;;;2.30;;
5454;SDS011;2750;49.050;9.250;2022-08-01T23:13:18;2.70;;;2.30;;
5454;SDS011;2750;49.050;9.250;2022-08-01T23:18:22;2.00;;;1.80;;
5454;SDS011;2750;49.050;9.250;2022-08-01T23:23:26;3.63;;;2.53;;
5454;SDS011;2750;49.050;9.250;2022-08-01T23:28:28;3.83;;;2.47;;
5454;SDS011;2750;49.050;9.250;2022-08-01T23:33:31;3.00;;;2.77;;
5454;SDS011;2750;49.050;9.250;2022-08-01T23:38:32;2.60;;;2.40;;
5454;SDS011;2750;49.050;9.250;2022-08-01T23:43:34;2.93;;;2.57;;
5454;SDS011;2750;49.050;9.250;2022-08-01T23:48:37;3.53;;;2.50;;
5454;SDS011;2750;49.050;9.250;2022-08-01T23:53:38;3.23;;;2.57;;
5454;SDS011;2750;49.050;9.250;2022-08-01T23:58:40;2.90;;;2.53;;
